createdAt,value
2024-05-09T00:00:41.831Z,10.43
2024-05-09T00:01:41.225Z,10.42
2024-05-09T00:02:41.216Z,10.42
2024-05-09T00:03:41.448Z,10.40
2024-05-09T00:04:41.427Z,10.39
2024-05-09T00:05:41.827Z,10.37
2024-05-09T00:06:41.552Z,10.35
2024-05-09T00:07:41.628Z,10.34
2024-05-09T00:08:41.836Z,10.32
2024-05-09T00:09:41.792Z,10.31
2024-05-09T00:10:41.918Z,10.30
2024-05-09T00:11:42.038Z,10.29
2024-05-09T00:12:42.041Z,10.28
2024-05-09T00:13:42.166Z,10.28
2024-05-09T00:14:42.185Z,10.27
2024-05-09T00:15:42.274Z,10.27
2024-05-09T00:16:42.475Z,10.26
2024-05-09T00:17:42.793Z,10.25
2024-05-09T00:18:42.640Z,10.25
2024-05-09T00:19:42.656Z,10.24
2024-05-09T00:20:42.767Z,10.23
2024-05-09T00:21:42.894Z,10.23
2024-05-09T00:22:42.900Z,10.22
2024-05-09T00:23:42.988Z,10.22
2024-05-09T00:24:43.082Z,10.22
2024-05-09T00:25:43.628Z,10.22
2024-05-09T00:26:43.308Z,10.22
2024-05-09T00:27:43.425Z,10.22
2024-05-09T00:28:43.429Z,10.22
2024-05-09T00:29:43.484Z,10.22
2024-05-09T00:30:43.589Z,10.22
2024-05-09T00:31:43.681Z,10.21
2024-05-09T00:32:43.881Z,10.20
2024-05-09T00:33:43.960Z,10.20
2024-05-09T00:34:43.905Z,10.19
2024-05-09T00:35:43.954Z,10.18
2024-05-09T00:36:44.054Z,10.17
2024-05-09T00:37:44.213Z,10.17
2024-05-09T00:38:44.301Z,10.17
2024-05-09T00:39:44.287Z,10.16
2024-05-09T00:40:44.381Z,10.16
2024-05-09T00:41:44.513Z,10.16
2024-05-09T00:42:44.540Z,10.15
2024-05-09T00:43:44.633Z,10.15
2024-05-09T00:44:44.693Z,10.14
2024-05-09T00:45:44.756Z,10.14
2024-05-09T00:46:44.869Z,10.12
2024-05-09T00:47:45.100Z,10.12
2024-05-09T00:48:45.088Z,10.11
2024-05-09T00:49:45.208Z,10.10
2024-05-09T00:50:45.449Z,10.09
2024-05-09T00:51:45.208Z,10.08
2024-05-09T00:52:45.355Z,10.07
2024-05-09T00:53:45.423Z,10.06
2024-05-09T00:54:45.464Z,10.05
2024-05-09T00:55:45.564Z,10.04
2024-05-09T00:56:45.634Z,10.03
2024-05-09T00:57:45.705Z,10.02
2024-05-09T00:58:45.809Z,10.01
2024-05-09T00:59:45.976Z,10.01
2024-05-09T01:00:46.013Z,10.00
2024-05-09T01:01:46.156Z,10.00
2024-05-09T01:02:46.217Z,10.00
2024-05-09T01:03:48.711Z,9.99
2024-05-09T01:04:46.442Z,9.99
2024-05-09T01:05:46.430Z,9.98
2024-05-09T01:06:46.491Z,9.97
2024-05-09T01:07:46.587Z,9.97
2024-05-09T01:08:46.666Z,9.96
2024-05-09T01:09:46.738Z,9.96
2024-05-09T01:10:48.556Z,9.95
2024-05-09T01:11:46.983Z,9.94
2024-05-09T01:12:46.995Z,9.94
2024-05-09T01:13:47.155Z,9.93
2024-05-09T01:14:47.172Z,9.93
2024-05-09T01:15:47.239Z,9.93
2024-05-09T01:16:47.367Z,9.92
2024-05-09T01:17:47.738Z,9.91
2024-05-09T01:18:47.643Z,9.90
2024-05-09T01:19:47.767Z,9.89
2024-05-09T01:20:47.734Z,9.88
2024-05-09T01:21:47.763Z,9.86
2024-05-09T01:22:47.892Z,9.85
2024-05-09T01:23:47.967Z,9.83
2024-05-09T01:24:47.991Z,9.82
2024-05-09T01:25:48.095Z,9.81
2024-05-09T01:26:48.130Z,9.80
2024-05-09T01:27:48.194Z,9.79
2024-05-09T01:28:48.389Z,9.78
2024-05-09T01:29:48.339Z,9.77
2024-05-09T01:30:48.429Z,9.76
2024-05-09T01:31:48.642Z,9.75
2024-05-09T01:32:48.690Z,9.74
2024-05-09T01:33:48.768Z,9.74
2024-05-09T01:34:48.803Z,9.74
2024-05-09T01:35:48.805Z,9.74
2024-05-09T01:36:48.895Z,9.74
2024-05-09T01:37:48.997Z,9.74
2024-05-09T01:38:49.031Z,9.73
2024-05-09T01:39:49.113Z,9.73
2024-05-09T01:40:49.217Z,9.72
2024-05-09T01:41:49.275Z,9.72
2024-05-09T01:42:49.373Z,9.71
2024-05-09T01:43:49.500Z,9.70
2024-05-09T01:44:49.587Z,9.69
2024-05-09T01:45:49.635Z,9.69
2024-05-09T01:46:49.760Z,9.68
2024-05-09T01:47:49.956Z,9.67
2024-05-09T01:48:50.026Z,9.67
2024-05-09T01:49:49.989Z,9.66
2024-05-09T01:50:50.061Z,9.66
2024-05-09T01:51:50.116Z,9.66
2024-05-09T01:52:50.209Z,9.65
2024-05-09T01:53:50.256Z,9.65
2024-05-09T01:54:50.361Z,9.65
2024-05-09T01:55:50.478Z,9.64
2024-05-09T01:56:50.484Z,9.64
2024-05-09T01:57:50.583Z,9.64
2024-05-09T01:58:50.676Z,9.63
2024-05-09T01:59:50.724Z,9.63
2024-05-09T02:00:50.855Z,9.63
2024-05-09T02:01:57.117Z,9.62
2024-05-09T02:02:51.168Z,9.62
2024-05-09T02:03:51.293Z,9.61
2024-05-09T02:04:51.361Z,9.61
2024-05-09T02:05:51.224Z,9.60
2024-05-09T02:06:51.223Z,9.60
2024-05-09T02:07:51.347Z,9.60
2024-05-09T02:08:51.386Z,9.60
2024-05-09T02:09:51.465Z,9.60
2024-05-09T02:10:51.696Z,9.59
2024-05-09T02:11:51.732Z,9.59
2024-05-09T02:12:51.809Z,9.58
2024-05-09T02:13:51.819Z,9.58
2024-05-09T02:14:51.934Z,9.57
2024-05-09T02:15:51.960Z,9.56
2024-05-09T02:16:52.067Z,9.54
2024-05-09T02:17:52.256Z,9.53
2024-05-09T02:18:52.488Z,9.52
2024-05-09T02:19:52.370Z,9.51
2024-05-09T02:20:52.553Z,9.49
2024-05-09T02:21:52.449Z,9.47
2024-05-09T02:22:52.572Z,9.43
2024-05-09T02:23:52.602Z,9.38
2024-05-09T02:24:52.685Z,9.32
2024-05-09T02:25:52.755Z,9.25
2024-05-09T02:26:52.823Z,9.19
2024-05-09T02:27:52.914Z,9.13
2024-05-09T02:28:53.016Z,9.06
2024-05-09T02:29:53.060Z,9.00
2024-05-09T02:30:53.125Z,8.94
2024-05-09T02:31:53.262Z,8.89
2024-05-09T02:32:53.358Z,8.85
2024-05-09T02:33:53.560Z,8.80
2024-05-09T02:34:53.495Z,8.76
2024-05-09T02:35:53.484Z,8.72
2024-05-09T02:36:53.560Z,8.67
2024-05-09T02:37:53.708Z,8.62
2024-05-09T02:38:53.712Z,8.57
2024-05-09T02:39:53.782Z,8.52
2024-05-09T02:40:53.912Z,8.48
2024-05-09T02:41:53.961Z,8.43
2024-05-09T02:42:54.085Z,8.38
2024-05-09T02:43:54.159Z,8.34
2024-05-09T02:44:54.279Z,8.31
2024-05-09T02:45:54.349Z,8.28
2024-05-09T02:46:54.447Z,8.26
2024-05-09T02:47:54.870Z,8.24
2024-05-09T02:48:54.674Z,8.22
2024-05-09T02:49:54.700Z,8.20
2024-05-09T02:50:54.830Z,8.17
2024-05-09T02:51:54.777Z,8.15
2024-05-09T02:52:54.901Z,8.12
2024-05-09T02:53:54.947Z,8.09
2024-05-09T02:54:55.023Z,8.05
2024-05-09T02:55:55.243Z,8.02
2024-05-09T02:56:55.210Z,7.97
2024-05-09T02:57:55.302Z,7.93
2024-05-09T02:58:55.420Z,7.89
2024-05-09T02:59:55.444Z,7.86
2024-05-09T03:00:55.592Z,7.83
2024-05-09T03:01:55.664Z,7.80
2024-05-09T03:02:55.718Z,7.78
2024-05-09T03:03:55.965Z,7.76
2024-05-09T03:04:56.049Z,7.73
2024-05-09T03:05:55.887Z,7.71
2024-05-09T03:06:55.978Z,7.69
2024-05-09T03:07:56.120Z,7.67
2024-05-09T03:08:56.173Z,7.64
2024-05-09T03:09:56.222Z,7.60
2024-05-09T03:10:56.387Z,7.57
2024-05-09T03:11:56.492Z,7.55
2024-05-09T03:12:56.449Z,7.53
2024-05-09T03:13:56.594Z,7.51
2024-05-09T03:14:56.616Z,7.50
2024-05-09T03:15:56.690Z,7.49
2024-05-09T03:16:56.814Z,7.48
2024-05-09T03:17:57.061Z,7.48
2024-05-09T03:18:56.998Z,7.47
2024-05-09T03:19:57.062Z,7.47
2024-05-09T03:20:57.215Z,7.46
2024-05-09T03:21:57.157Z,7.46
2024-05-09T03:22:57.312Z,7.45
2024-05-09T03:23:57.361Z,7.44
2024-05-09T03:24:57.362Z,7.43
2024-05-09T03:25:57.504Z,7.42
2024-05-09T03:26:57.607Z,7.42
2024-05-09T03:27:57.658Z,7.42
2024-05-09T03:28:57.738Z,7.41
2024-05-09T03:29:57.785Z,7.41
2024-05-09T03:30:57.851Z,7.41
2024-05-09T03:31:58.029Z,7.41
2024-05-09T03:32:58.147Z,7.41
2024-05-09T03:33:58.385Z,7.41
2024-05-09T03:34:58.264Z,7.39
2024-05-09T03:35:58.313Z,7.38
2024-05-09T03:36:58.372Z,7.37
2024-05-09T03:37:58.507Z,7.35
2024-05-09T03:38:58.551Z,7.33
2024-05-09T03:39:58.637Z,7.32
2024-05-09T03:40:58.782Z,7.31
2024-05-09T03:41:58.822Z,7.30
2024-05-09T03:42:59.008Z,7.29
2024-05-09T03:43:59.047Z,7.29
2024-05-09T03:44:59.110Z,7.29
2024-05-09T03:45:59.139Z,7.29
2024-05-09T03:46:59.343Z,7.29
2024-05-09T03:47:59.472Z,7.29
2024-05-09T03:48:59.439Z,7.30
2024-05-09T03:49:59.464Z,7.33
2024-05-09T03:50:59.550Z,7.38
2024-05-09T03:51:59.630Z,7.44
2024-05-09T03:52:59.723Z,7.51
2024-05-09T03:53:59.774Z,7.59
2024-05-09T03:54:59.877Z,7.66
2024-05-09T03:56:00.007Z,7.73
2024-05-09T03:56:59.994Z,7.80
2024-05-09T03:58:00.180Z,7.85
2024-05-09T03:59:00.242Z,7.88
2024-05-09T04:00:00.280Z,7.91
2024-05-09T04:01:00.382Z,7.92
2024-05-09T04:02:00.560Z,7.94
2024-05-09T04:03:00.781Z,7.95
2024-05-09T04:04:00.658Z,7.97
2024-05-09T04:05:00.695Z,8.01
2024-05-09T04:06:00.741Z,8.05
2024-05-09T04:07:00.820Z,8.10
2024-05-09T04:08:00.985Z,8.14
2024-05-09T04:09:00.982Z,8.19
2024-05-09T04:10:01.064Z,8.24
2024-05-09T04:11:01.268Z,8.27
2024-05-09T04:12:01.380Z,8.31
2024-05-09T04:13:01.434Z,8.34
2024-05-09T04:14:01.428Z,8.36
2024-05-09T04:15:01.491Z,8.38
2024-05-09T04:16:01.572Z,8.40
2024-05-09T04:17:01.665Z,8.42
2024-05-09T04:18:02.492Z,8.43
2024-05-09T04:19:01.921Z,8.45
2024-05-09T04:20:02.071Z,8.46
2024-05-09T04:21:02.140Z,8.47
2024-05-09T04:22:02.018Z,8.48
2024-05-09T04:23:02.155Z,8.49
2024-05-09T04:24:02.210Z,8.50
2024-05-09T04:25:02.277Z,8.51
2024-05-09T04:26:02.354Z,8.52
2024-05-09T04:27:02.413Z,8.53
2024-05-09T04:28:02.474Z,8.55
2024-05-09T04:29:02.629Z,8.56
2024-05-09T04:30:03.599Z,8.58
2024-05-09T04:31:02.701Z,8.60
2024-05-09T04:32:02.901Z,8.62
2024-05-09T04:33:03.030Z,8.63
2024-05-09T04:34:03.074Z,8.65
2024-05-09T04:35:03.100Z,8.67
2024-05-09T04:36:03.099Z,8.70
2024-05-09T04:37:03.197Z,8.72
2024-05-09T04:38:03.348Z,8.75
2024-05-09T04:39:03.342Z,8.78
2024-05-09T04:40:05.406Z,8.81
2024-05-09T04:41:03.543Z,8.84
2024-05-09T04:42:03.594Z,8.87
2024-05-09T04:43:03.726Z,8.90
2024-05-09T04:44:03.816Z,8.93
2024-05-09T04:45:03.836Z,8.96
2024-05-09T04:46:03.911Z,8.99
2024-05-09T04:47:03.990Z,9.01
2024-05-09T04:48:04.254Z,9.04
2024-05-09T04:49:04.240Z,9.07
2024-05-09T04:51:30.223Z,9.10
2024-05-09T04:52:02.172Z,9.09
2024-05-09T04:52:36.206Z,9.08
2024-05-09T04:53:36.433Z,9.10
2024-05-09T04:54:36.883Z,9.16
2024-05-09T04:55:36.466Z,9.23
2024-05-09T04:56:36.576Z,9.29
2024-05-09T04:57:36.579Z,9.35
2024-05-09T04:58:36.678Z,9.40
2024-05-09T04:59:36.825Z,9.45
2024-05-09T05:00:38.447Z,9.50
2024-05-09T05:01:36.996Z,9.54
2024-05-09T05:02:37.116Z,9.58
2024-05-09T05:03:37.360Z,9.61
2024-05-09T05:04:37.271Z,9.64
2024-05-09T05:05:37.268Z,9.68
2024-05-09T05:06:37.370Z,9.73
2024-05-09T05:07:37.402Z,9.77
2024-05-09T05:08:37.633Z,9.83
2024-05-09T05:09:37.555Z,9.88
2024-05-09T05:10:37.643Z,9.93
2024-05-09T05:11:37.868Z,9.98
2024-05-09T05:12:37.764Z,10.04
2024-05-09T05:13:40.970Z,10.09
2024-05-09T05:14:38.026Z,10.15
2024-05-09T05:15:38.169Z,10.21
2024-05-09T05:16:38.123Z,10.27
2024-05-09T05:17:38.531Z,10.34
2024-05-09T05:18:38.327Z,10.43
2024-05-09T05:19:38.521Z,10.53
2024-05-09T05:20:38.432Z,10.64
2024-05-09T05:21:38.446Z,10.77
2024-05-09T05:22:38.512Z,10.90
2024-05-09T05:23:38.783Z,11.04
2024-05-09T05:24:38.645Z,11.19
2024-05-09T05:25:38.735Z,11.34
2024-05-09T05:26:38.827Z,11.49
2024-05-09T05:27:38.899Z,11.65
2024-05-09T05:28:39.393Z,11.80
2024-05-09T05:29:39.119Z,11.95
2024-05-09T05:30:39.179Z,12.10
2024-05-09T05:31:39.243Z,12.26
2024-05-09T05:32:39.391Z,12.42
2024-05-09T05:33:39.511Z,12.60
2024-05-09T05:34:39.463Z,12.77
2024-05-09T05:35:39.762Z,12.95
2024-05-09T05:36:39.609Z,13.10
2024-05-09T05:37:39.711Z,13.24
2024-05-09T05:38:39.807Z,13.36
2024-05-09T05:39:39.830Z,13.48
2024-05-09T05:40:40.921Z,13.62
2024-05-09T05:41:40.020Z,13.77
2024-05-09T05:42:40.149Z,13.94
2024-05-09T05:43:40.213Z,14.11
2024-05-09T05:44:40.289Z,14.30
2024-05-09T05:45:40.348Z,14.50
2024-05-09T05:46:40.422Z,14.70
2024-05-09T05:47:40.918Z,14.92
2024-05-09T05:48:40.672Z,15.15
2024-05-09T05:49:40.745Z,15.39
2024-05-09T05:50:40.772Z,15.63
2024-05-09T05:51:40.791Z,15.85
2024-05-09T05:52:40.861Z,16.03
2024-05-09T05:53:41.142Z,16.18
2024-05-09T05:54:41.034Z,16.32
2024-05-09T05:55:41.182Z,16.47
2024-05-09T05:56:41.214Z,16.66
2024-05-09T05:57:41.266Z,16.89
2024-05-09T05:58:41.386Z,17.15
2024-05-09T05:59:41.519Z,17.42
2024-05-09T06:00:42.400Z,17.70
2024-05-09T06:01:41.602Z,17.96
2024-05-09T06:02:41.945Z,18.25
2024-05-09T06:03:41.953Z,18.57
2024-05-09T06:04:41.911Z,18.90
2024-05-09T06:05:41.956Z,19.22
2024-05-09T06:06:42.071Z,19.54
2024-05-09T06:07:42.117Z,19.85
2024-05-09T06:08:42.388Z,20.16
2024-05-09T06:09:42.320Z,20.47
2024-05-09T06:10:42.711Z,20.79
2024-05-09T06:11:42.528Z,21.10
2024-05-09T06:12:42.565Z,21.41
2024-05-09T06:13:42.675Z,21.69
2024-05-09T06:14:42.759Z,21.94
2024-05-09T06:15:43.602Z,22.18
2024-05-09T06:16:42.940Z,22.42
2024-05-09T06:17:43.136Z,22.63
2024-05-09T06:18:43.186Z,22.82
2024-05-09T06:19:43.232Z,23.04
2024-05-09T06:20:44.218Z,23.28
2024-05-09T06:21:43.336Z,23.56
2024-05-09T06:22:43.388Z,23.86
2024-05-09T06:23:43.578Z,24.15
2024-05-09T06:24:43.545Z,24.42
2024-05-09T06:25:43.669Z,24.67
2024-05-09T06:26:43.768Z,24.92
2024-05-09T06:27:43.844Z,25.17
2024-05-09T06:28:43.905Z,25.43
2024-05-09T06:29:43.967Z,25.71
2024-05-09T06:30:44.138Z,25.99
2024-05-09T06:31:44.248Z,26.26
2024-05-09T06:32:44.374Z,26.52
2024-05-09T06:33:44.501Z,26.76
2024-05-09T06:34:44.556Z,27.00
2024-05-09T06:35:45.016Z,27.25
2024-05-09T06:36:44.541Z,27.53
2024-05-09T06:37:44.654Z,27.82
2024-05-09T06:38:44.751Z,28.12
2024-05-09T06:39:44.795Z,28.38
2024-05-09T06:40:45.107Z,28.61
2024-05-09T06:41:44.961Z,28.82
2024-05-09T06:42:45.054Z,29.02
2024-05-09T06:43:45.148Z,29.22
2024-05-09T06:44:45.198Z,29.45
2024-05-09T06:45:45.317Z,29.68
2024-05-09T06:46:45.474Z,29.92
2024-05-09T06:47:45.527Z,30.16
2024-05-09T06:48:46.000Z,30.41
2024-05-09T06:49:45.727Z,30.69
2024-05-09T06:50:45.782Z,30.97
2024-05-09T06:51:45.752Z,31.24
2024-05-09T06:52:45.930Z,31.48
2024-05-09T06:53:45.950Z,31.69
2024-05-09T06:54:45.957Z,31.87
2024-05-09T06:55:46.094Z,32.03
2024-05-09T06:56:46.157Z,32.20
2024-05-09T06:57:46.235Z,32.37
2024-05-09T06:58:46.378Z,32.52
2024-05-09T06:59:46.385Z,32.64
2024-05-09T07:00:46.563Z,32.70
2024-05-09T07:01:46.593Z,32.70
2024-05-09T07:02:46.877Z,32.67
2024-05-09T07:03:46.883Z,32.63
2024-05-09T07:04:47.078Z,32.61
2024-05-09T07:05:48.153Z,32.63
2024-05-09T07:06:46.934Z,32.69
2024-05-09T07:07:47.010Z,32.80
2024-05-09T07:08:48.597Z,32.97
2024-05-09T07:09:47.210Z,33.20
2024-05-09T07:10:47.458Z,33.46
2024-05-09T07:11:47.448Z,33.74
2024-05-09T07:12:47.418Z,34.03
2024-05-09T07:13:47.550Z,34.32
2024-05-09T07:14:47.669Z,34.59
2024-05-09T07:15:47.727Z,34.86
2024-05-09T07:16:47.893Z,35.15
2024-05-09T07:17:48.053Z,35.47
2024-05-09T07:18:48.154Z,35.78
2024-05-09T07:19:48.166Z,36.07
2024-05-09T07:20:49.087Z,36.30
2024-05-09T07:21:48.162Z,36.43
2024-05-09T07:22:48.318Z,36.44
2024-05-09T07:23:48.429Z,36.35
2024-05-09T07:24:48.411Z,36.19
2024-05-09T07:25:48.669Z,36.01
2024-05-09T07:26:48.660Z,35.85
2024-05-09T07:27:48.621Z,35.75
2024-05-09T07:28:48.830Z,35.74
2024-05-09T07:29:48.848Z,35.83
2024-05-09T07:30:48.919Z,35.97
2024-05-09T07:31:49.076Z,36.11
2024-05-09T07:32:49.337Z,36.23
2024-05-09T07:33:49.205Z,36.35
2024-05-09T07:34:49.209Z,36.51
2024-05-09T07:35:49.421Z,36.71
2024-05-09T07:36:49.377Z,36.93
2024-05-09T07:37:49.479Z,37.13
2024-05-09T07:38:49.616Z,37.32
2024-05-09T07:39:49.603Z,37.51
2024-05-09T07:40:49.798Z,37.71
2024-05-09T07:41:49.780Z,37.88
2024-05-09T07:42:49.885Z,37.97
2024-05-09T07:43:49.990Z,37.97
2024-05-09T07:44:50.027Z,37.92
2024-05-09T07:45:54.051Z,37.88
2024-05-09T07:47:52.282Z,37.89
2024-05-09T07:51:31.668Z,37.96
2024-05-09T07:53:37.277Z,38.12
2024-05-09T07:53:51.937Z,38.63
2024-05-09T07:54:24.182Z,39.25
2024-05-09T07:55:24.124Z,39.69
2024-05-09T07:56:25.408Z,39.95
2024-05-09T07:57:24.199Z,40.04
2024-05-09T07:58:24.264Z,40.06
2024-05-09T07:59:24.315Z,40.08
2024-05-09T08:00:30.910Z,40.17
2024-05-09T08:01:24.643Z,40.33
2024-05-09T08:02:24.750Z,40.53
2024-05-09T08:03:24.755Z,40.74
2024-05-09T08:04:26.565Z,40.98
2024-05-09T08:05:24.919Z,41.26
2024-05-09T08:06:24.866Z,41.55
2024-05-09T08:07:25.047Z,41.83
2024-05-09T08:08:25.042Z,42.13
2024-05-09T08:09:25.154Z,42.44
2024-05-09T08:10:28.839Z,42.76
2024-05-09T08:11:25.314Z,43.03
2024-05-09T08:12:25.364Z,43.24
2024-05-09T08:13:25.422Z,43.38
2024-05-09T08:14:25.531Z,43.49
2024-05-09T08:15:25.618Z,43.57
2024-05-09T08:16:25.791Z,43.61
2024-05-09T08:17:25.912Z,43.60
2024-05-09T08:18:26.060Z,43.55
2024-05-09T08:19:25.977Z,43.50
2024-05-09T08:20:31.138Z,43.46
2024-05-09T08:21:26.129Z,43.39
2024-05-09T08:22:26.154Z,43.30
2024-05-09T08:23:26.265Z,43.19
2024-05-09T08:24:26.494Z,43.08
2024-05-09T08:25:26.505Z,42.97
2024-05-09T08:26:26.508Z,42.76
2024-05-09T08:27:26.630Z,42.48
2024-05-09T08:28:26.764Z,42.28
2024-05-09T08:29:26.755Z,42.21
2024-05-09T08:30:33.450Z,42.25
2024-05-09T08:31:27.020Z,42.32
2024-05-09T08:32:27.133Z,42.39
2024-05-09T08:33:27.340Z,42.53
2024-05-09T08:34:27.315Z,42.75
2024-05-09T08:35:27.350Z,43.05
2024-05-09T08:36:27.439Z,43.38
2024-05-09T08:37:31.101Z,43.65
2024-05-09T08:38:27.554Z,43.86
2024-05-09T08:39:27.715Z,44.02
2024-05-09T08:40:34.072Z,44.13
2024-05-09T08:41:27.815Z,44.22
2024-05-09T08:42:27.882Z,44.28
2024-05-09T08:43:28.035Z,44.30
2024-05-09T08:44:27.995Z,44.30
2024-05-09T08:45:28.199Z,44.28
2024-05-09T08:46:28.413Z,44.23
2024-05-09T08:47:28.359Z,44.16
2024-05-09T08:48:28.423Z,44.11
2024-05-09T08:49:28.589Z,44.13
2024-05-09T08:50:36.000Z,44.16
2024-05-09T08:51:28.583Z,44.19
2024-05-09T08:52:28.672Z,44.23
2024-05-09T08:53:28.751Z,44.31
2024-05-09T08:54:28.929Z,44.44
2024-05-09T08:55:28.877Z,44.62
2024-05-09T08:56:28.969Z,44.82
2024-05-09T08:57:29.081Z,44.98
2024-05-09T08:58:29.146Z,45.04
2024-05-09T08:59:29.254Z,45.03
2024-05-09T09:00:36.200Z,45.04
2024-05-09T09:01:29.461Z,45.11
2024-05-09T09:02:29.608Z,45.25
2024-05-09T09:03:29.812Z,45.42
2024-05-09T09:04:29.715Z,45.56
2024-05-09T09:05:29.975Z,45.62
2024-05-09T09:06:29.836Z,45.62
2024-05-09T09:07:29.965Z,45.62
2024-05-09T09:08:29.979Z,45.62
2024-05-09T09:09:30.112Z,45.61
2024-05-09T09:10:32.357Z,45.60
2024-05-09T09:11:30.223Z,45.60
2024-05-09T09:12:30.331Z,45.61
2024-05-09T09:13:30.377Z,45.54
2024-05-09T09:14:30.449Z,45.31
2024-05-09T09:15:30.656Z,45.01
2024-05-09T09:16:30.665Z,44.75
2024-05-09T09:17:30.766Z,44.57
2024-05-09T09:18:31.178Z,44.50
2024-05-09T09:19:31.019Z,44.52
2024-05-09T09:20:36.260Z,44.56
2024-05-09T09:21:31.089Z,44.63
2024-05-09T09:22:31.476Z,44.77
2024-05-09T09:23:31.301Z,44.95
2024-05-09T09:24:31.313Z,45.10
2024-05-09T09:25:31.412Z,45.18
2024-05-09T09:26:31.482Z,45.15
2024-05-09T09:27:31.621Z,45.01
2024-05-09T09:28:31.638Z,44.79
2024-05-09T09:29:31.681Z,44.54
2024-05-09T09:30:36.887Z,44.33
2024-05-09T09:31:31.967Z,44.19
2024-05-09T09:32:32.078Z,44.16
2024-05-09T09:33:32.653Z,44.21
2024-05-09T09:34:32.490Z,44.31
2024-05-09T09:35:32.209Z,44.46
2024-05-09T09:36:32.239Z,44.66
2024-05-09T09:37:32.326Z,44.89
2024-05-09T09:38:32.388Z,45.08
2024-05-09T09:39:32.566Z,45.23
2024-05-09T09:40:34.819Z,45.32
2024-05-09T09:41:32.628Z,45.35
2024-05-09T09:42:32.761Z,45.35
2024-05-09T09:43:32.815Z,45.30
2024-05-09T09:44:34.049Z,45.23
2024-05-09T09:45:33.080Z,45.20
2024-05-09T09:46:33.129Z,45.26
2024-05-09T09:47:33.231Z,45.43
2024-05-09T09:48:33.428Z,45.65
2024-05-09T09:49:33.485Z,45.80
2024-05-09T09:50:34.863Z,45.87
2024-05-09T09:51:33.524Z,45.91
2024-05-09T09:52:33.642Z,45.97
2024-05-09T09:53:33.691Z,46.10
2024-05-09T09:54:33.839Z,46.28
2024-05-09T09:55:33.887Z,46.45
2024-05-09T09:56:33.987Z,46.63
2024-05-09T09:57:34.097Z,46.83
2024-05-09T09:58:34.163Z,47.06
2024-05-09T09:59:34.228Z,47.34
2024-05-09T10:00:34.512Z,47.59
2024-05-09T10:01:34.616Z,47.72
2024-05-09T10:02:34.538Z,47.74
2024-05-09T10:03:34.860Z,47.62
2024-05-09T10:04:34.777Z,47.44
2024-05-09T10:05:34.959Z,47.18
2024-05-09T10:06:34.872Z,46.66
2024-05-09T10:07:34.906Z,45.94
2024-05-09T10:08:34.989Z,45.37
2024-05-09T10:09:35.116Z,45.10
2024-05-09T10:10:35.404Z,45.02
2024-05-09T10:11:42.040Z,45.04
2024-05-09T10:12:35.441Z,45.08
2024-05-09T10:13:35.547Z,45.13
2024-05-09T10:14:35.490Z,45.21
2024-05-09T10:15:35.651Z,45.30
2024-05-09T10:16:35.727Z,45.43
2024-05-09T10:17:35.976Z,45.47
2024-05-09T10:18:35.993Z,45.17
2024-05-09T10:19:36.110Z,44.53
2024-05-09T10:20:36.061Z,44.08
2024-05-09T10:21:36.189Z,44.00
2024-05-09T10:22:36.209Z,44.11
2024-05-09T10:23:36.348Z,44.29
2024-05-09T10:24:36.426Z,44.30
2024-05-09T10:25:36.400Z,44.06
2024-05-09T10:26:36.495Z,43.48
2024-05-09T10:27:36.682Z,42.58
2024-05-09T10:28:36.690Z,41.58
2024-05-09T10:29:36.767Z,40.59
2024-05-09T10:30:37.429Z,39.62
2024-05-09T10:31:36.985Z,38.71
2024-05-09T10:32:37.056Z,38.06
2024-05-09T10:33:37.371Z,37.90
2024-05-09T10:34:37.258Z,38.13
2024-05-09T10:35:37.384Z,38.44
2024-05-09T10:36:37.385Z,38.85
2024-05-09T10:37:37.396Z,39.45
2024-05-09T10:38:37.478Z,39.92
2024-05-09T10:39:37.594Z,40.00
2024-05-09T10:40:37.761Z,40.06
2024-05-09T10:41:37.751Z,40.43
2024-05-09T10:42:37.836Z,41.02
2024-05-09T10:43:37.931Z,41.74
2024-05-09T10:44:38.015Z,42.49
2024-05-09T10:45:38.095Z,43.25
2024-05-09T10:46:38.190Z,43.68
2024-05-09T10:47:38.304Z,43.54
2024-05-09T10:48:38.554Z,42.85
2024-05-09T10:49:38.451Z,41.79
2024-05-09T10:50:38.477Z,40.60
2024-05-09T10:51:38.620Z,39.64
2024-05-09T10:52:38.618Z,38.95
2024-05-09T10:53:38.759Z,38.48
2024-05-09T10:54:38.839Z,38.46
2024-05-09T10:55:38.887Z,38.89
2024-05-09T10:56:38.925Z,39.55
2024-05-09T10:57:39.180Z,40.25
2024-05-09T10:58:39.090Z,40.90
2024-05-09T10:59:39.199Z,41.46
2024-05-09T11:00:39.369Z,41.89
2024-05-09T11:01:39.542Z,42.22
2024-05-09T11:02:39.635Z,42.51
2024-05-09T11:03:39.973Z,42.80
2024-05-09T11:04:39.767Z,43.11
2024-05-09T11:05:39.784Z,43.43
2024-05-09T11:06:39.895Z,43.80
2024-05-09T11:07:39.861Z,44.22
2024-05-09T11:08:39.958Z,44.62
2024-05-09T11:09:40.100Z,44.90
2024-05-09T11:10:40.222Z,45.04
2024-05-09T11:11:40.352Z,45.08
2024-05-09T11:12:40.319Z,45.07
2024-05-09T11:13:40.376Z,45.08
2024-05-09T11:14:40.466Z,45.13
2024-05-09T11:15:40.553Z,45.12
2024-05-09T11:16:40.599Z,45.05
2024-05-09T11:17:40.855Z,44.99
2024-05-09T11:18:41.094Z,45.01
2024-05-09T11:19:41.072Z,45.14
2024-05-09T11:20:41.082Z,45.38
2024-05-09T11:21:41.085Z,45.68
2024-05-09T11:22:41.072Z,45.95
2024-05-09T11:23:41.431Z,46.12
2024-05-09T11:24:41.317Z,46.19
2024-05-09T11:25:41.335Z,46.23
2024-05-09T11:26:41.435Z,46.26
2024-05-09T11:27:41.555Z,46.29
2024-05-09T11:28:41.594Z,46.27
2024-05-09T11:29:41.708Z,46.24
2024-05-09T11:30:41.840Z,46.26
2024-05-09T11:31:41.991Z,46.33
2024-05-09T11:32:42.025Z,46.42
2024-05-09T11:33:42.233Z,46.51
2024-05-09T11:34:42.308Z,46.55
2024-05-09T11:35:42.162Z,46.53
2024-05-09T11:36:42.290Z,46.50
2024-05-09T11:37:42.385Z,46.52
2024-05-09T11:38:42.433Z,46.57
2024-05-09T11:39:42.622Z,46.59
2024-05-09T11:40:42.798Z,46.43
2024-05-09T11:41:42.804Z,45.99
2024-05-09T11:42:42.884Z,45.31
2024-05-09T11:43:42.878Z,44.68
2024-05-09T11:44:42.970Z,44.29
2024-05-09T11:45:43.075Z,44.09
2024-05-09T11:46:43.095Z,43.93
2024-05-09T11:47:43.239Z,43.73
2024-05-09T11:48:43.603Z,43.27
2024-05-09T11:49:43.420Z,42.59
2024-05-09T11:50:43.478Z,42.02
2024-05-09T11:51:43.551Z,41.68
2024-05-09T11:52:43.606Z,41.31
2024-05-09T11:53:43.701Z,40.74
2024-05-09T11:54:43.835Z,39.95
2024-05-09T11:55:43.864Z,38.98
2024-05-09T11:56:43.963Z,37.91
2024-05-09T11:57:44.093Z,36.85
2024-05-09T11:58:44.140Z,35.86
2024-05-09T11:59:44.212Z,35.14
2024-05-09T12:00:44.484Z,34.77
2024-05-09T12:01:44.558Z,34.56
2024-05-09T12:02:44.500Z,34.33
2024-05-09T12:03:44.785Z,34.03
2024-05-09T12:04:44.858Z,33.65
2024-05-09T12:05:44.973Z,33.22
2024-05-09T12:06:44.867Z,32.80
2024-05-09T12:07:44.916Z,32.37
2024-05-09T12:08:44.966Z,31.95
2024-05-09T12:09:45.150Z,31.54
2024-05-09T12:10:45.234Z,31.15
2024-05-09T12:11:45.254Z,30.80
2024-05-09T12:12:45.395Z,30.49
2024-05-09T12:13:45.388Z,30.39
2024-05-09T12:14:45.462Z,30.72
2024-05-09T12:15:45.601Z,31.52
2024-05-09T12:16:45.759Z,32.59
2024-05-09T12:17:47.784Z,33.72
2024-05-09T12:18:45.913Z,34.77
2024-05-09T12:19:45.954Z,35.77
2024-05-09T12:20:45.960Z,36.78
2024-05-09T12:21:46.036Z,37.83
2024-05-09T12:22:46.111Z,38.85
2024-05-09T12:23:46.204Z,39.78
2024-05-09T12:24:46.435Z,40.51
2024-05-09T12:25:46.351Z,41.01
2024-05-09T12:26:46.433Z,41.44
2024-05-09T12:27:46.537Z,41.87
2024-05-09T12:28:46.599Z,42.31
2024-05-09T12:29:46.737Z,42.72
2024-05-09T12:30:46.832Z,43.02
2024-05-09T12:31:46.944Z,43.10
2024-05-09T12:32:47.131Z,43.03
2024-05-09T12:33:47.134Z,42.95
2024-05-09T12:34:47.148Z,42.95
2024-05-09T12:35:49.259Z,43.08
2024-05-09T12:36:47.342Z,43.32
2024-05-09T12:37:47.338Z,43.63
2024-05-09T12:38:47.420Z,43.95
2024-05-09T12:39:47.595Z,44.22
2024-05-09T12:40:47.598Z,44.29
2024-05-09T12:41:47.753Z,44.01
2024-05-09T12:42:47.798Z,43.50
2024-05-09T12:43:47.915Z,42.86
2024-05-09T12:44:47.935Z,42.05
2024-05-09T12:45:48.099Z,41.34
2024-05-09T12:46:48.057Z,40.77
2024-05-09T12:47:48.231Z,40.11
2024-05-09T12:48:48.350Z,39.24
2024-05-09T12:49:48.391Z,38.26
2024-05-09T12:50:48.437Z,37.27
2024-05-09T12:51:48.529Z,36.34
2024-05-09T12:52:48.601Z,35.68
2024-05-09T12:53:48.631Z,35.47
2024-05-09T12:54:48.730Z,35.67
2024-05-09T12:55:56.425Z,36.16
2024-05-09T12:56:48.834Z,36.76
2024-05-09T12:57:48.926Z,37.41
2024-05-09T12:58:49.046Z,38.08
2024-05-09T12:59:49.104Z,38.73
2024-05-09T13:00:49.338Z,39.29
2024-05-09T13:01:49.360Z,39.74
2024-05-09T13:02:49.393Z,40.12
2024-05-09T13:03:49.846Z,40.46
2024-05-09T13:04:49.643Z,40.79
2024-05-09T13:05:49.793Z,41.07